createdAt,value
2018-11-01T00:01:10.178Z,101047.37
2018-11-01T00:06:13.315Z,101047.33
2018-11-01T00:11:16.405Z,101031.27
2018-11-01T00:16:19.539Z,101016.91
2018-11-01T00:21:22.626Z,101006.32
2018-11-01T00:26:25.745Z,100997.20
2018-11-01T00:31:28.829Z,101000.55
2018-11-01T00:36:31.982Z,100995.96
2018-11-01T00:41:35.070Z,101003.70
2018-11-01T00:46:38.214Z,100996.05
2018-11-01T00:51:41.416Z,100993.48
2018-11-01T00:56:44.521Z,100967.36
2018-11-01T01:01:47.640Z,100971.73
2018-11-01T01:06:50.764Z,100965.28
2018-11-01T01:11:53.954Z,100970.69
2018-11-01T01:16:57.104Z,100970.50
2018-11-01T01:22:00.270Z,100965.25
2018-11-01T01:27:03.492Z,100969.99
2018-11-01T01:32:06.695Z,100976.66
2018-11-01T01:37:09.809Z,100968.81
2018-11-01T01:42:13.052Z,100967.62
2018-11-01T01:47:16.183Z,100962.41
2018-11-01T01:52:19.302Z,100955.52
2018-11-01T01:57:22.414Z,100950.13
2018-11-01T02:02:25.518Z,100944.84
2018-11-01T02:07:28.664Z,100936.53
2018-11-01T02:12:31.757Z,100932.78
2018-11-01T02:17:34.870Z,100929.67
2018-11-01T02:22:38.171Z,100932.88
2018-11-01T02:27:47.080Z,100930.31
2018-11-01T02:32:50.169Z,100920.29
2018-11-01T02:37:53.363Z,100913.20
2018-11-01T02:42:56.406Z,100915.22
2018-11-01T02:47:59.526Z,100910.84
2018-11-01T02:53:02.647Z,100908.30
2018-11-01T02:58:06.197Z,100904.53
2018-11-01T03:03:09.293Z,100892.64
2018-11-01T03:08:12.381Z,100895.70
2018-11-01T03:13:15.493Z,100890.57
2018-11-01T03:18:18.607Z,100878.56
2018-11-01T03:23:21.998Z,100874.20
2018-11-01T03:28:25.121Z,100874.69
2018-11-01T03:33:28.242Z,100852.38
2018-11-01T03:38:31.571Z,100840.51
2018-11-01T03:43:34.577Z,100828.15
2018-11-01T03:48:37.724Z,100832.42
2018-11-01T03:53:40.890Z,100836.69
2018-11-01T03:58:44.036Z,100831.06
2018-11-01T04:03:47.212Z,100826.32
2018-11-01T04:08:50.297Z,100823.64
2018-11-01T04:13:53.570Z,100831.70
2018-11-01T04:18:57.019Z,100832.92
2018-11-01T04:24:00.165Z,100835.16
2018-11-01T04:29:03.361Z,100846.63
2018-11-01T04:34:06.534Z,100846.25
2018-11-01T04:39:10.569Z,100845.32
2018-11-01T04:44:13.706Z,100825.71
2018-11-01T04:49:16.823Z,100813.09
2018-11-01T04:54:19.945Z,100794.37
2018-11-01T04:59:23.110Z,100795.68
2018-11-01T05:04:26.210Z,100779.95
2018-11-01T05:09:29.369Z,100772.20
2018-11-01T05:14:32.546Z,100775.69
2018-11-01T05:19:35.706Z,100779.77
2018-11-01T05:24:38.840Z,100784.78
2018-11-01T05:29:42.095Z,100791.69
2018-11-01T05:34:45.560Z,100813.91
2018-11-01T05:39:48.963Z,100808.70
2018-11-01T05:44:53.641Z,100806.71
2018-11-01T05:49:57.153Z,100806.37
2018-11-01T05:55:00.397Z,100783.34
2018-11-01T06:00:04.880Z,100756.11
2018-11-01T06:05:09.298Z,100756.72
2018-11-01T06:10:13.808Z,100764.25
2018-11-01T06:15:17.210Z,100763.41
2018-11-01T06:20:20.720Z,100774.12
2018-11-01T06:25:23.946Z,100763.78
2018-11-01T06:30:28.370Z,100760.36
2018-11-01T06:36:06.169Z,100759.30
2018-11-01T06:41:10.205Z,100761.41
2018-11-01T06:46:13.506Z,100770.81
2018-11-01T06:51:16.735Z,100767.28
2018-11-01T06:56:19.903Z,100784.90
2018-11-01T07:01:23.163Z,100786.03
2018-11-01T07:06:26.298Z,100793.55
2018-11-01T07:11:29.730Z,100783.55
2018-11-01T07:16:32.823Z,100774.75
2018-11-01T07:21:35.989Z,100769.48
2018-11-01T07:26:39.115Z,100755.89
2018-11-01T07:31:42.221Z,100737.83
2018-11-01T07:36:45.410Z,100739.75
2018-11-01T07:41:48.538Z,100735.05
2018-11-01T07:46:51.749Z,100729.87
2018-11-01T07:51:54.903Z,100739.30
2018-11-01T07:56:58.121Z,100731.77
2018-11-01T08:02:01.247Z,100723.55
2018-11-01T08:07:04.441Z,100721.08
2018-11-01T08:12:07.627Z,100712.66
2018-11-01T08:17:10.864Z,100729.75
2018-11-01T08:22:14.072Z,100736.55
2018-11-01T08:35:13.331Z,100732.55
2018-11-01T08:40:16.587Z,100725.95
2018-11-01T08:45:20.963Z,100720.00
2018-11-01T08:50:24.308Z,100721.07
2018-11-01T08:55:27.510Z,100713.47
2018-11-01T09:00:30.677Z,100700.65
2018-11-01T09:05:33.942Z,100696.69
2018-11-01T09:10:37.121Z,100696.73
2018-11-01T09:15:40.678Z,100703.09
2018-11-01T09:20:43.849Z,100716.98
2018-11-01T09:25:47.072Z,100717.38
2018-11-01T09:30:50.203Z,100704.05
2018-11-01T09:35:53.474Z,100707.36
2018-11-01T09:40:56.484Z,100699.36
2018-11-01T09:45:59.707Z,100700.20
2018-11-01T09:51:03.032Z,100699.14
2018-11-01T09:56:06.363Z,100696.60
2018-11-01T10:01:09.489Z,100686.03
2018-11-01T10:06:12.751Z,100686.58
2018-11-01T10:11:15.818Z,100680.42
2018-11-01T10:16:19.132Z,100663.89
2018-11-01T10:21:22.211Z,100660.44
2018-11-01T10:26:25.367Z,100650.89
2018-11-01T10:31:28.506Z,100653.34
2018-11-01T10:36:31.678Z,100661.02
2018-11-01T10:41:34.934Z,100652.62
2018-11-01T10:46:38.136Z,100661.16
2018-11-01T10:51:41.245Z,100660.87
2018-11-01T10:56:44.375Z,100664.58
2018-11-01T11:01:53.145Z,100670.66
2018-11-01T11:06:56.277Z,100667.24
2018-11-01T11:11:59.382Z,100666.48
2018-11-01T11:17:02.606Z,100660.28
2018-11-01T11:22:05.858Z,100647.67
2018-11-01T11:27:34.463Z,100633.31
2018-11-01T11:32:38.769Z,100624.38
2018-11-01T11:37:41.939Z,100613.95
2018-11-01T11:42:51.666Z,100602.31
2018-11-01T11:47:54.880Z,100586.75
2018-11-01T11:52:58.086Z,100580.80
2018-11-01T11:58:01.310Z,100582.15
2018-11-01T12:03:04.816Z,100583.20
2018-11-01T12:08:08.083Z,100581.16
2018-11-01T12:13:11.338Z,100568.06
2018-11-01T12:18:14.504Z,100584.22
2018-11-01T12:23:18.246Z,100571.69
2018-11-01T12:28:21.363Z,100569.56
2018-11-01T12:33:25.294Z,100555.05
2018-11-01T12:38:29.510Z,100543.91
2018-11-01T12:43:32.710Z,100527.81
2018-11-01T12:48:35.922Z,100522.14
2018-11-01T12:53:39.054Z,100490.89
2018-11-01T12:58:42.284Z,100497.50
2018-11-01T13:03:45.425Z,100500.84
2018-11-01T13:08:48.560Z,100501.55
2018-11-01T13:13:51.690Z,100512.17
2018-11-01T13:18:54.874Z,100513.09
2018-11-01T13:23:58.009Z,100518.50
2018-11-01T13:29:01.143Z,100513.95
2018-11-01T13:34:04.336Z,100499.59
2018-11-01T13:39:07.890Z,100512.91
2018-11-01T13:44:11.055Z,100528.99
2018-11-01T13:49:14.254Z,100530.30
2018-11-01T13:54:17.450Z,100536.12
2018-11-01T13:59:20.605Z,100510.73
2018-11-01T14:04:23.757Z,100513.27
2018-11-01T14:09:26.914Z,100521.33
2018-11-01T14:14:30.473Z,100532.25
2018-11-01T14:19:39.882Z,100526.41
2018-11-01T14:24:42.996Z,100527.02
2018-11-01T14:29:46.128Z,100525.73
2018-11-01T14:34:49.317Z,100528.23
2018-11-01T14:39:52.441Z,100531.02
2018-11-01T14:44:55.597Z,100554.66
2018-11-01T14:49:58.809Z,100518.18
2018-11-01T14:55:03.098Z,100524.09
2018-11-01T15:00:08.180Z,100512.49
2018-11-01T15:05:11.471Z,100517.94
2018-11-01T15:10:15.242Z,100500.65
2018-11-01T15:15:18.462Z,100484.41
2018-11-01T15:20:21.626Z,100474.42
2018-11-01T15:25:24.819Z,100463.50
2018-11-01T15:30:28.771Z,100464.63
2018-11-01T15:35:31.985Z,100465.55
2018-11-01T15:40:35.187Z,100482.84
2018-11-01T15:45:38.351Z,100490.99
2018-11-01T15:50:41.498Z,100506.33
2018-11-01T15:55:44.648Z,100517.56
2018-11-01T16:00:47.844Z,100509.98
2018-11-01T16:05:51.000Z,100512.81
2018-11-01T16:10:54.188Z,100515.44
2018-11-01T16:16:00.556Z,100513.41
2018-11-01T16:21:03.926Z,100517.38
2018-11-01T16:26:07.265Z,100516.92
2018-11-01T16:31:10.470Z,100510.13
2018-11-01T16:36:13.600Z,100512.24
2018-11-01T16:41:16.807Z,100503.79
2018-11-01T16:46:20.043Z,100509.77
2018-11-01T16:51:23.225Z,100512.83
2018-11-01T16:56:26.405Z,100506.73
2018-11-01T17:01:29.533Z,100506.55
2018-11-01T17:06:33.970Z,100517.48
2018-11-01T17:11:37.241Z,100506.65
2018-11-01T17:16:40.384Z,100496.95
2018-11-01T17:21:43.578Z,100508.52
2018-11-01T17:26:46.741Z,100545.17
2018-11-01T17:31:49.974Z,100568.83
2018-11-01T17:36:53.191Z,100576.20
2018-11-01T17:41:56.470Z,100583.82
2018-11-01T17:46:59.667Z,100599.26
2018-11-01T17:52:02.905Z,100599.42
2018-11-01T17:57:06.226Z,100607.30
2018-11-01T18:02:10.760Z,100615.91
2018-11-01T18:07:16.754Z,100620.56
2018-11-01T18:12:20.596Z,100615.62
2018-11-01T18:17:24.192Z,100621.30
2018-11-01T18:22:27.739Z,100615.80
2018-11-01T18:27:31.094Z,100624.84
2018-11-01T18:32:34.422Z,100632.64
2018-11-01T18:37:38.045Z,100640.60
2018-11-01T18:42:41.470Z,100638.09
2018-11-01T18:47:44.936Z,100638.67
2018-11-01T18:52:48.502Z,100632.38
2018-11-01T18:57:51.951Z,100637.05
2018-11-01T19:02:55.362Z,100644.02
2018-11-01T19:07:58.872Z,100649.58
2018-11-01T19:13:02.319Z,100659.55
2018-11-01T19:18:05.834Z,100650.86
2018-11-01T19:23:09.290Z,100654.56
2018-11-01T19:28:12.712Z,100644.75
2018-11-01T19:33:17.026Z,100667.36
2018-11-01T19:38:20.632Z,100663.52
2018-11-01T19:43:23.833Z,100669.42
2018-11-01T19:48:27.064Z,100677.77
2018-11-01T19:53:30.110Z,100679.60
2018-11-01T20:14:39.814Z,100683.41
2018-11-01T20:19:43.030Z,100685.16
2018-11-01T20:24:46.045Z,100683.02
2018-11-01T20:29:49.164Z,100695.66
2018-11-01T20:34:52.369Z,100694.89
2018-11-01T20:39:55.556Z,100701.38
2018-11-01T20:44:59.481Z,100707.43
2018-11-01T20:50:02.704Z,100707.69
2018-11-01T20:55:06.616Z,100716.80
2018-11-01T21:00:12.216Z,100725.28
2018-11-01T21:05:15.370Z,100723.00
2018-11-01T21:10:18.479Z,100723.84
2018-11-01T21:15:21.572Z,100722.91
2018-11-01T21:20:27.614Z,100719.42
2018-11-01T21:25:30.942Z,100731.33
2018-11-01T21:30:34.074Z,100744.51
2018-11-01T21:35:37.392Z,100734.78
2018-11-01T21:40:40.485Z,100733.28
2018-11-01T21:45:43.645Z,100739.45
2018-11-01T21:50:46.762Z,100727.27
2018-11-01T21:55:49.857Z,100738.70
2018-11-01T22:00:53.012Z,100738.21
2018-11-01T22:05:56.189Z,100734.11
2018-11-01T22:10:59.396Z,100725.46
2018-11-01T22:16:02.547Z,100729.80
2018-11-01T22:21:05.715Z,100730.31
2018-11-01T22:26:08.878Z,100730.77
2018-11-01T22:31:12.128Z,100740.03
2018-11-01T22:36:15.290Z,100746.30
2018-11-01T22:41:18.433Z,100753.73
2018-11-01T22:46:21.562Z,100735.97
2018-11-01T22:51:24.662Z,100735.91
2018-11-01T22:56:27.775Z,100739.56
2018-11-01T23:01:31.466Z,100732.31
2018-11-01T23:06:34.768Z,100729.89
2018-11-01T23:11:38.566Z,100739.09
2018-11-01T23:16:41.711Z,100756.66
2018-11-01T23:21:44.850Z,100753.98
2018-11-01T23:26:47.977Z,100756.81
2018-11-01T23:31:51.106Z,100765.26
2018-11-01T23:36:59.870Z,100769.64
2018-11-01T23:42:08.603Z,100776.42
2018-11-01T23:47:17.462Z,100769.17
2018-11-01T23:52:22.214Z,100770.53
2018-11-01T23:57:25.329Z,100762.44
